Time;durP1;ratioP1;P1;durP2;ratioP2;P2;SDS_P1;SDS_P2;PMS_P1;PMS_P2;Temp;Humidity;BMP_temperature;BMP_pressure;BME280_temperature;BME280_humidity;BME280_pressure;Samples;Min_cycle;Max_cycle;Signal;HPM_P1;HPM_P2
2022/04/19 00:01:56;;;;;;;;;28.00;25.25;24.00;99.90;;;;;;5037577;28;8764;-65
2022/04/19 00:04:23;;;;;;;;;28.00;23.25;23.90;99.90;;;;;;5038628;28;8761;-65
2022/04/19 00:06:50;;;;;;;;;31.75;28.25;23.90;99.90;;;;;;5049567;28;8786;-65
2022/04/19 00:09:17;;;;;;;;;33.25;29.00;24.00;99.90;;;;;;5057127;28;8775;-64
2022/04/19 00:11:44;;;;;;;;;33.00;27.75;24.10;99.90;;;;;;5039490;28;9286;-66
2022/04/19 00:14:10;;;;;;;;;20.00;16.25;24.10;99.90;;;;;;5057293;28;8785;-65
2022/04/19 00:16:38;;;;;;;;;27.00;27.00;24.00;99.90;;;;;;5039553;28;9597;-65
2022/04/19 00:19:07;;;;;;;;;32.00;26.50;24.20;99.90;;;;;;5057866;28;8812;-65
2022/04/19 00:21:34;;;;;;;;;27.75;25.50;24.20;99.90;;;;;;5061663;28;8785;-65
2022/04/19 00:24:00;;;;;;;;;27.25;25.50;24.20;99.90;;;;;;5034521;28;9603;-65
2022/04/19 00:26:27;;;;;;;;;36.50;30.25;24.20;99.90;;;;;;5032326;28;8776;-65
2022/04/19 00:28:54;;;;;;;;;35.75;31.00;24.30;99.90;;;;;;5033518;28;8781;-65
2022/04/19 00:31:22;;;;;;;;;39.75;33.50;24.30;99.90;;;;;;5033597;28;8797;-65
2022/04/19 00:33:48;;;;;;;;;32.75;30.00;24.30;99.90;;;;;;5033602;28;9402;-65
2022/04/19 00:36:15;;;;;;;;;30.50;28.00;24.20;99.90;;;;;;5022689;28;8767;-65
2022/04/19 00:38:42;;;;;;;;;33.75;26.50;24.20;99.90;;;;;;5034819;28;8766;-65
2022/04/19 00:41:11;;;;;;;;;33.00;28.75;24.20;99.90;;;;;;5035002;28;8766;-65
2022/04/19 00:43:38;;;;;;;;;29.25;27.25;24.10;99.90;;;;;;5052829;28;9564;-65
2022/04/19 00:46:05;;;;;;;;;32.75;28.25;24.10;99.90;;;;;;5035468;28;8763;-65
2022/04/19 00:48:31;;;;;;;;;28.00;24.00;24.20;99.90;;;;;;5053388;28;8731;-65
2022/04/19 00:50:58;;;;;;;;;37.00;27.50;24.20;99.90;;;;;;5047663;28;8793;-65
2022/04/19 00:53:25;;;;;;;;;34.25;27.50;23.80;99.90;;;;;;5015277;28;8784;-63
2022/04/19 00:55:52;;;;;;;;;34.75;29.50;23.80;99.90;;;;;;4999797;28;9445;-66
2022/04/19 00:58:19;;;;;;;;;31.25;27.25;23.70;99.90;;;;;;5016342;28;8761;-65
2022/04/19 01:00:45;;;;;;;;;27.75;22.50;23.60;99.90;;;;;;5015919;28;8737;-66
2022/04/19 01:03:12;;;;;;;;;31.75;26.75;23.90;99.90;;;;;;5033219;28;8761;-66
2022/04/19 01:05:39;;;;;;;;;31.00;24.25;23.80;99.90;;;;;;5027275;28;8760;-66
2022/04/19 01:08:07;;;;;;;;;33.00;31.25;23.80;99.90;;;;;;5035366;28;9126;-66
2022/04/19 01:10:34;;;;;;;;;44.75;34.50;23.90;99.90;;;;;;5034961;28;8757;-66
2022/04/19 01:13:19;;;;;;;;;51.00;39.00;23.80;99.90;;;;;;5069028;28;8763;-66
2022/04/19 01:15:49;;;;;;;;;40.75;31.25;23.80;99.90;;;;;;5053010;28;8741;-66
2022/04/19 01:18:22;;;;;;;;;29.75;24.75;23.70;99.90;;;;;;5051614;28;8780;-66
2022/04/19 01:20:49;;;;;;;;;42.75;33.00;23.70;99.90;;;;;;5032265;28;8763;-67
2022/04/19 01:23:21;;;;;;;;;35.00;31.00;24.00;99.90;;;;;;5049039;28;8786;-66
2022/04/19 01:25:47;;;;;;;;;40.50;34.75;24.00;99.90;;;;;;5048416;28;8796;-66
2022/04/19 01:28:14;;;;;;;;;45.25;35.75;23.90;99.90;;;;;;5015484;28;9462;-67
2022/04/19 01:30:43;;;;;;;;;37.75;32.50;24.00;99.90;;;;;;5047818;28;8742;-66
2022/04/19 01:33:10;;;;;;;;;35.00;31.25;24.10;99.90;;;;;;5015662;28;8955;-66
2022/04/19 01:35:37;;;;;;;;;25.75;21.50;24.40;99.90;;;;;;5033259;28;8837;-66
2022/04/19 01:38:04;;;;;;;;;35.00;33.00;24.20;99.90;;;;;;5053262;28;8768;-66
2022/04/19 01:40:31;;;;;;;;;35.50;28.50;24.00;99.90;;;;;;5034442;28;8798;-66
2022/04/19 01:43:02;;;;;;;;;25.25;23.75;24.10;99.90;;;;;;5051763;28;8724;-67
2022/04/19 01:45:30;;;;;;;;;32.25;28.75;24.10;99.90;;;;;;5034167;28;8737;-71
2022/04/19 01:47:57;;;;;;;;;36.00;30.75;24.10;99.90;;;;;;5067915;28;9428;-66
2022/04/19 01:50:26;;;;;;;;;38.00;33.00;24.10;99.90;;;;;;5052054;28;9077;-66
2022/04/19 01:52:54;;;;;;;;;39.25;34.25;24.30;99.90;;;;;;5032482;28;9363;-67
2022/04/19 01:55:21;;;;;;;;;36.75;34.00;24.40;99.90;;;;;;5032801;28;8726;-66
2022/04/19 01:57:50;;;;;;;;;38.25;31.50;24.30;99.90;;;;;;5014904;28;8778;-66
2022/04/19 02:00:17;;;;;;;;;37.00;31.00;24.30;99.90;;;;;;5013756;28;8786;-66
2022/04/19 02:02:44;;;;;;;;;39.50;33.00;24.20;99.90;;;;;;5015691;28;8755;-65
2022/04/19 02:05:11;;;;;;;;;36.00;30.50;24.20;99.90;;;;;;5049354;28;8986;-64
2022/04/19 02:07:44;;;;;;;;;38.75;31.25;24.20;99.90;;;;;;5054691;28;9476;-64
2022/04/19 02:10:13;;;;;;;;;43.00;34.50;24.30;99.90;;;;;;5056855;28;8873;-64
2022/04/19 02:12:40;;;;;;;;;32.50;29.50;24.40;99.90;;;;;;5056348;28;8901;-64
2022/04/19 02:15:07;;;;;;;;;28.50;27.25;24.30;99.90;;;;;;5056414;28;8758;-64
2022/04/19 02:17:34;;;;;;;;;37.25;31.00;24.20;99.90;;;;;;5056481;28;8754;-64
2022/04/19 02:20:07;;;;;;;;;28.00;27.75;24.20;99.90;;;;;;5056843;28;8870;-64
2022/04/19 02:22:34;;;;;;;;;24.75;24.75;24.80;99.90;;;;;;5038272;28;8764;-64
2022/04/19 02:25:01;;;;;;;;;26.75;25.25;24.60;99.90;;;;;;5036679;28;8757;-64
2022/04/19 02:27:30;;;;;;;;;30.75;27.00;25.10;99.90;;;;;;5017897;28;8755;-63
2022/04/19 02:29:57;;;;;;;;;24.75;24.75;24.70;99.90;;;;;;5019078;28;8799;-65
2022/04/19 02:32:24;;;;;;;;;32.75;26.75;25.10;99.90;;;;;;5037348;28;8785;-69
2022/04/19 02:34:51;;;;;;;;;27.00;23.50;25.20;99.90;;;;;;5038049;28;8765;-69
2022/04/19 02:37:19;;;;;;;;;31.50;26.25;25.40;99.90;;;;;;5052952;28;8770;-68
2022/04/19 02:39:49;;;;;;;;;26.75;25.50;25.00;99.90;;;;;;5058374;28;8816;-69
2022/04/19 02:42:16;;;;;;;;;34.00;29.00;25.10;99.90;;;;;;5040730;28;8942;-69
2022/04/19 02:44:43;;;;;;;;;26.75;26.75;25.60;99.90;;;;;;5039835;28;9442;-69
2022/04/19 02:47:09;;;;;;;;;27.00;26.00;25.60;99.90;;;;;;5049561;28;8759;-68
2022/04/19 02:49:39;;;;;;;;;30.00;27.50;25.50;99.90;;;;;;5058582;28;8775;-67
2022/04/19 02:52:10;;;;;;;;;24.25;21.50;25.60;99.90;;;;;;5028198;28;8825;-69
2022/04/19 02:54:37;;;;;;;;;26.50;25.50;25.40;99.90;;;;;;5021417;28;8906;-69
2022/04/19 02:57:04;;;;;;;;;25.50;23.50;25.50;99.90;;;;;;5021076;28;8784;-69
2022/04/19 02:59:31;;;;;;;;;26.50;24.75;25.70;99.90;;;;;;5037514;28;8772;-70
2022/04/19 03:01:58;;;;;;;;;26.25;24.00;25.50;99.90;;;;;;5037021;28;8773;-69
2022/04/19 03:04:25;;;;;;;;;27.00;24.25;25.40;99.90;;;;;;5037926;28;8741;-65
2022/04/19 03:06:54;;;;;;;;;24.50;22.50;25.40;99.90;;;;;;5065295;28;8771;-67
2022/04/19 03:09:21;;;;;;;;;26.25;24.00;25.50;99.90;;;;;;5072952;28;8774;-65
2022/04/19 03:11:48;;;;;;;;;26.25;24.50;25.50;99.90;;;;;;5057860;28;8825;-67
2022/04/19 03:14:17;;;;;;;;;27.50;23.00;25.50;99.90;;;;;;5056697;28;8766;-67
2022/04/19 03:16:43;;;;;;;;;25.25;23.25;25.60;99.90;;;;;;5057673;28;8743;-68
2022/04/19 03:19:13;;;;;;;;;32.25;24.75;25.60;99.90;;;;;;5073631;28;8738;-68
2022/04/19 03:21:41;;;;;;;;;24.75;23.75;25.60;99.90;;;;;;5047408;28;8777;-68
2022/04/19 03:29:37;;;;;;;;;25.50;25.25;25.90;99.90;;;;;;5037107;28;8793;-63
2022/04/19 03:32:05;;;;;;;;;23.25;22.75;25.90;99.90;;;;;;5037149;28;8792;-63
2022/04/19 03:34:31;;;;;;;;;24.75;23.25;26.00;99.90;;;;;;5002784;28;8832;-63
2022/04/19 03:36:58;;;;;;;;;26.50;23.75;26.00;99.90;;;;;;5032747;28;8814;-63
2022/04/19 03:39:25;;;;;;;;;20.00;19.50;26.10;99.90;;;;;;5036687;28;8920;-70
2022/04/19 03:41:52;;;;;;;;;22.00;21.50;26.40;99.90;;;;;;5055881;28;9458;-64
2022/04/19 03:44:19;;;;;;;;;25.50;22.75;26.10;99.90;;;;;;5057614;28;8759;-66
2022/04/19 03:49:32;;;;;;;;;25.33;19.67;26.20;99.90;;;;;;5057518;28;9507;-65
2022/04/19 03:51:59;;;;;;;;;26.00;20.25;26.40;99.90;;;;;;5044794;28;8820;-65
2022/04/19 03:54:25;;;;;;;;;20.20;17.80;26.40;99.90;;;;;;5052640;28;8946;-64
2022/04/19 03:56:52;;;;;;;;;18.40;18.40;26.60;99.90;;;;;;5021018;28;8780;-64
2022/04/19 03:59:19;;;;;;;;;22.20;21.20;26.90;99.90;;;;;;5021278;28;8765;-63
2022/04/19 04:01:46;;;;;;;;;18.20;16.00;27.60;99.90;;;;;;5020857;28;8760;-64
2022/04/19 04:04:12;;;;;;;;;19.40;16.00;27.30;99.90;;;;;;5020754;28;8764;-64
2022/04/19 04:06:39;;;;;;;;;20.25;16.75;27.30;99.90;;;;;;5062059;28;8810;-64
2022/04/19 04:09:06;;;;;;;;;19.50;18.25;27.50;99.90;;;;;;5056746;28;8896;-64
2022/04/19 04:11:33;;;;;;;;;20.50;18.75;27.30;99.90;;;;;;5041451;28;8897;-65
2022/04/19 04:13:59;;;;;;;;;25.00;22.75;27.20;99.90;;;;;;5074058;28;8744;-64
2022/04/19 04:16:26;;;;;;;;;25.50;21.75;26.80;99.90;;;;;;5040812;28;8740;-63
2022/04/19 04:18:53;;;;;;;;;24.50;22.25;27.40;99.90;;;;;;5057153;28;8736;-65
2022/04/19 04:21:20;;;;;;;;;26.50;20.25;27.40;99.90;;;;;;5048627;28;8755;-64
2022/04/19 04:23:47;;;;;;;;;22.25;21.50;27.10;99.90;;;;;;5019418;28;8750;-65
2022/04/19 04:26:13;;;;;;;;;22.50;21.75;27.30;99.90;;;;;;5018199;28;8754;-65
2022/04/19 04:28:40;;;;;;;;;21.80;19.80;27.40;99.90;;;;;;5027803;28;8718;-64
2022/04/19 04:31:07;;;;;;;;;20.80;17.60;27.40;99.90;;;;;;5033597;28;8730;-65
2022/04/19 04:33:34;;;;;;;;;26.20;21.40;26.80;99.90;;;;;;5035005;28;8730;-65
2022/04/19 04:36:00;;;;;;;;;27.00;25.00;26.90;99.90;;;;;;5056692;28;8748;-66
2022/04/19 04:38:27;;;;;;;;;22.50;21.25;27.20;99.90;;;;;;5056532;28;8760;-65
2022/04/19 04:40:54;;;;;;;;;27.00;19.75;27.70;99.90;;;;;;5015907;28;8765;-65
2022/04/19 04:43:21;;;;;;;;;21.75;18.00;28.30;99.90;;;;;;5068665;28;9381;-64
2022/04/19 04:49:35;;;;;;;;;20.50;19.25;28.10;99.90;;;;;;5055947;28;8731;-65
2022/04/19 04:51:22;;;;;;;;;22.50;21.00;28.10;99.90;;;;;;5033299;28;9140;-65
2022/04/19 04:53:48;;;;;;;;;16.00;14.75;28.00;99.90;;;;;;5035839;28;8831;-64
2022/04/19 04:56:15;;;;;;;;;18.25;16.25;27.60;99.90;;;;;;5036627;28;9184;-64
2022/04/19 04:58:42;;;;;;;;;23.50;20.25;27.30;99.90;;;;;;5035499;28;8746;-64
2022/04/19 05:01:08;;;;;;;;;19.00;15.75;27.20;99.90;;;;;;5036745;28;8810;-66
2022/04/19 05:03:36;;;;;;;;;19.00;18.00;27.50;99.90;;;;;;5035997;28;8766;-67
2022/04/19 05:06:03;;;;;;;;;19.00;18.75;28.00;99.90;;;;;;5056685;28;8830;-65
2022/04/19 05:08:30;;;;;;;;;18.25;17.75;28.10;99.90;;;;;;5056067;28;8854;-66
2022/04/19 05:10:57;;;;;;;;;25.00;19.00;28.40;99.90;;;;;;5055570;28;9471;-66
2022/04/19 05:13:23;;;;;;;;;18.75;16.50;28.40;99.90;;;;;;5055018;28;9517;-66
2022/04/19 05:15:50;;;;;;;;;20.50;20.50;28.60;99.90;;;;;;5054738;28;8847;-65
2022/04/19 05:18:17;;;;;;;;;18.00;16.00;28.60;99.90;;;;;;5055341;28;8735;-64
2022/04/19 05:20:44;;;;;;;;;23.50;18.25;28.60;99.90;;;;;;5035385;28;8873;-66
2022/04/19 05:23:11;;;;;;;;;22.00;19.25;28.30;99.90;;;;;;5018603;28;8741;-64
2022/04/19 05:25:37;;;;;;;;;21.80;18.00;28.20;99.90;;;;;;5034917;28;9170;-64
2022/04/19 05:28:04;;;;;;;;;29.25;20.75;28.00;99.90;;;;;;4994471;28;8852;-65
2022/04/19 05:30:31;;;;;;;;;23.00;19.25;28.00;99.90;;;;;;5035710;28;9373;-65
2022/04/19 05:32:57;;;;;;;;;20.75;20.25;27.90;99.90;;;;;;5035931;28;9472;-64
2022/04/19 05:35:24;;;;;;;;;20.25;19.00;27.90;99.90;;;;;;5035612;28;9378;-74
2022/04/19 05:37:51;;;;;;;;;19.25;18.00;27.90;99.90;;;;;;5036238;28;9097;-67
2022/04/19 05:40:18;;;;;;;;;18.25;17.50;28.00;99.90;;;;;;5040259;28;8899;-66
2022/04/19 05:42:45;;;;;;;;;20.50;19.50;28.00;99.90;;;;;;5031656;28;8765;-66
2022/04/19 05:45:11;;;;;;;;;18.50;18.00;27.80;99.90;;;;;;5036066;28;8765;-65
2022/04/19 05:47:38;;;;;;;;;16.75;15.50;28.10;99.90;;;;;;5038811;28;8788;-65
2022/04/19 05:50:05;;;;;;;;;21.25;18.75;27.90;99.90;;;;;;5039224;28;8899;-66
2022/04/19 05:52:32;;;;;;;;;18.00;17.50;27.90;99.90;;;;;;5055490;28;8786;-66
2022/04/19 05:54:58;;;;;;;;;18.00;18.00;27.90;99.90;;;;;;5060471;28;8844;-66
2022/04/19 05:57:25;;;;;;;;;14.75;13.00;27.80;99.90;;;;;;5057977;28;8793;-66
2022/04/19 05:59:52;;;;;;;;;19.25;18.00;27.80;99.90;;;;;;5059258;28;8743;-66
2022/04/19 06:05:04;;;;;;;;;16.80;14.80;27.80;99.90;;;;;;5058547;28;8774;-66
2022/04/19 06:07:31;;;;;;;;;15.20;13.00;27.90;99.90;;;;;;5040499;28;8786;-66
2022/04/19 06:09:58;;;;;;;;;17.50;15.25;27.90;99.90;;;;;;5021374;28;8794;-67
2022/04/19 06:12:25;;;;;;;;;17.25;14.25;27.80;99.90;;;;;;5020018;28;8987;-66
2022/04/19 06:14:52;;;;;;;;;14.75;13.50;27.80;99.90;;;;;;5054286;28;9434;-66
2022/04/19 06:17:19;;;;;;;;;20.25;15.00;27.80;99.90;;;;;;5020812;28;8757;-69
2022/04/19 06:19:45;;;;;;;;;15.50;12.00;28.20;99.90;;;;;;5039064;28;9273;-67
2022/04/19 06:22:13;;;;;;;;;18.50;15.75;28.00;99.90;;;;;;5053941;28;8823;-68
2022/04/19 06:24:39;;;;;;;;;12.00;9.25;29.10;99.90;;;;;;5058570;28;8732;-68
2022/04/19 06:27:08;;;;;;;;;14.50;11.50;29.20;99.90;;;;;;5059306;28;8890;-68
2022/04/19 06:29:35;;;;;;;;;15.50;13.50;29.20;99.90;;;;;;5058614;28;8772;-67
2022/04/19 06:32:01;;;;;;;;;16.00;14.25;29.60;99.90;;;;;;5059137;28;8845;-69
2022/04/19 06:34:28;;;;;;;;;15.25;13.25;29.60;99.90;;;;;;5058450;28;8806;-66
2022/04/19 06:36:55;;;;;;;;;16.75;14.50;29.50;99.90;;;;;;5046969;28;8844;-67
2022/04/19 06:39:22;;;;;;;;;14.50;14.50;29.20;99.90;;;;;;5036906;28;8755;-67
2022/04/19 06:41:50;;;;;;;;;15.25;13.00;29.60;99.90;;;;;;5038826;28;8782;-67
2022/04/19 06:44:19;;;;;;;;;12.50;11.50;29.60;99.90;;;;;;5053609;28;9439;-66
2022/04/19 06:46:47;;;;;;;;;11.75;11.75;29.60;99.90;;;;;;5037987;28;8798;-67
2022/04/19 06:49:14;;;;;;;;;13.00;10.25;29.70;99.90;;;;;;5038779;28;8734;-67
2022/04/19 06:51:41;;;;;;;;;11.00;10.00;29.80;99.90;;;;;;5048286;28;8887;-67
2022/04/19 06:54:09;;;;;;;;;14.20;14.00;29.90;99.90;;;;;;5040708;28;8736;-67
2022/04/19 06:56:36;;;;;;;;;14.60;12.00;29.90;99.90;;;;;;5056542;28;8783;-66
2022/04/19 06:59:03;;;;;;;;;14.40;11.00;30.00;99.90;;;;;;5057998;28;8764;-67
2022/04/19 07:01:30;;;;;;;;;12.80;11.20;29.80;99.90;;;;;;5057386;28;8779;-70
2022/04/19 07:03:57;;;;;;;;;14.75;12.75;29.90;99.90;;;;;;5057832;28;8749;-65
2022/04/19 07:06:24;;;;;;;;;14.25;11.50;30.00;99.90;;;;;;5049480;28;8769;-64
2022/04/19 07:08:51;;;;;;;;;14.75;12.75;30.00;99.90;;;;;;5038096;28;8726;-65
2022/04/19 07:11:17;;;;;;;;;13.00;10.80;30.40;99.90;;;;;;5020395;28;8774;-64
2022/04/19 07:13:44;;;;;;;;;11.60;11.20;30.50;99.90;;;;;;5037614;28;8750;-65
2022/04/19 07:16:11;;;;;;;;;12.50;12.50;30.80;99.90;;;;;;5037680;28;8739;-64
2022/04/19 07:18:37;;;;;;;;;13.50;11.00;30.80;99.90;;;;;;5018246;28;8816;-63
2022/04/19 07:26:47;;;;;;;;;14.00;13.00;30.50;99.90;;;;;;5057381;28;8783;-66
2022/04/19 07:29:18;;;;;;;;;8.20;6.60;30.50;99.90;;;;;;5057411;28;8768;-69
2022/04/19 07:31:49;;;;;;;;;13.80;12.00;30.40;99.90;;;;;;5073003;28;8812;-69
2022/04/19 07:34:16;;;;;;;;;12.75;12.75;30.70;99.90;;;;;;5058398;28;8732;-65
2022/04/19 07:36:43;;;;;;;;;9.00;9.00;30.90;99.90;;;;;;5047222;28;8765;-64
2022/04/19 07:39:10;;;;;;;;;14.00;11.50;31.00;99.90;;;;;;5037395;28;8760;-66
2022/04/19 07:41:40;;;;;;;;;8.50;8.25;31.10;99.90;;;;;;5019494;28;9478;-65
2022/04/19 07:44:10;;;;;;;;;15.00;12.75;30.90;99.90;;;;;;5037817;28;8766;-66
2022/04/19 07:46:36;;;;;;;;;14.25;13.25;30.70;99.90;;;;;;5051755;28;9086;-66
2022/04/19 07:49:04;;;;;;;;;12.00;12.00;30.40;99.90;;;;;;5036526;28;8742;-65
2022/04/19 07:51:30;;;;;;;;;16.25;12.00;30.50;99.90;;;;;;5044449;28;8788;-65
2022/04/19 07:53:57;;;;;;;;;10.50;10.50;30.60;99.90;;;;;;5057181;28;8732;-65
2022/04/19 07:56:24;;;;;;;;;14.00;12.75;30.80;99.90;;;;;;5056608;28;8784;-65
2022/04/19 07:58:51;;;;;;;;;12.75;11.25;30.60;99.90;;;;;;5039252;28;8756;-71
2022/04/19 08:01:18;;;;;;;;;13.50;12.00;30.70;99.90;;;;;;5057119;28;8732;-64
2022/04/19 08:03:45;;;;;;;;;15.00;14.00;30.80;99.90;;;;;;5055022;28;8756;-66
2022/04/19 08:06:12;;;;;;;;;15.25;14.25;30.70;99.90;;;;;;5050557;28;8742;-66
2022/04/19 08:08:42;;;;;;;;;16.60;13.60;30.50;99.90;;;;;;5018468;28;8762;-67
2022/04/19 08:11:09;;;;;;;;;15.00;12.00;30.70;99.90;;;;;;5036717;28;8769;-64
2022/04/19 08:13:35;;;;;;;;;16.00;12.50;30.60;99.90;;;;;;5018111;28;8729;-66
2022/04/19 08:16:02;;;;;;;;;13.75;13.75;30.70;99.90;;;;;;5036786;28;8753;-64
2022/04/19 08:18:31;;;;;;;;;14.60;11.20;30.40;99.90;;;;;;5035849;28;8745;-64
2022/04/19 08:20:58;;;;;;;;;17.25;14.00;30.50;99.90;;;;;;5041115;28;8775;-64
2022/04/19 08:23:25;;;;;;;;;14.75;14.50;30.60;99.90;;;;;;5072008;28;8738;-66
2022/04/19 08:25:51;;;;;;;;;16.75;11.50;30.50;99.90;;;;;;5055935;28;8786;-64
2022/04/19 08:28:19;;;;;;;;;12.50;11.25;30.70;99.90;;;;;;5057271;28;8785;-65
2022/04/19 08:30:45;;;;;;;;;16.00;13.00;30.70;99.90;;;;;;5038121;28;8727;-65
2022/04/19 08:33:12;;;;;;;;;13.40;13.00;30.70;99.90;;;;;;5071854;28;9399;-66
2022/04/19 08:35:39;;;;;;;;;13.80;13.00;30.90;99.90;;;;;;5053705;28;9744;-65
2022/04/19 08:38:06;;;;;;;;;17.25;16.50;30.70;99.90;;;;;;5018127;28;8749;-65
2022/04/19 08:40:33;;;;;;;;;12.00;12.00;30.80;99.90;;;;;;5036278;28;8787;-65
2022/04/19 08:43:00;;;;;;;;;13.25;11.75;30.60;99.90;;;;;;5003360;28;8781;-66
2022/04/19 08:45:28;;;;;;;;;14.00;13.60;30.50;99.90;;;;;;5019345;28;8851;-66
2022/04/19 08:47:57;;;;;;;;;9.25;9.25;30.60;99.90;;;;;;5036707;28;8780;-65
2022/04/19 08:50:23;;;;;;;;;14.80;12.00;30.80;99.90;;;;;;5019851;28;8769;-65
2022/04/19 08:57:29;;;;;;;;;14.60;14.20;30.80;99.90;;;;;;5022545;28;8809;-66
2022/04/19 08:58:22;;;;;;;;;12.75;11.00;30.50;99.90;;;;;;5054743;28;8747;-65
2022/04/19 09:00:49;;;;;;;;;16.00;11.25;30.70;99.90;;;;;;5057340;28;8755;-66
2022/04/19 09:03:15;;;;;;;;;15.50;13.75;30.40;99.90;;;;;;5057018;28;8743;-66
2022/04/19 09:05:52;;;;;;;;;12.25;11.50;30.40;99.90;;;;;;5054440;28;8773;-66
2022/04/19 09:08:19;;;;;;;;;14.50;10.75;30.40;99.90;;;;;;5018783;28;8773;-64
2022/04/19 09:10:50;;;;;;;;;12.50;10.00;30.50;99.90;;;;;;5036722;28;8855;-66
2022/04/19 09:13:21;;;;;;;;;13.40;12.60;30.40;99.90;;;;;;5019595;28;8812;-66
2022/04/19 09:15:49;;;;;;;;;11.25;10.75;30.40;99.90;;;;;;5052418;28;8737;-69
2022/04/19 09:18:29;;;;;;;;;8.00;7.50;30.70;99.90;;;;;;5019039;28;8854;-67
2022/04/19 09:20:56;;;;;;;;;14.00;13.00;30.60;99.90;;;;;;5024195;28;8747;-67
2022/04/19 09:23:23;;;;;;;;;12.50;12.50;30.20;99.90;;;;;;5038813;28;8884;-66
2022/04/19 09:25:53;;;;;;;;;7.25;7.25;29.70;99.90;;;;;;5056677;28;8820;-66
2022/04/19 09:28:21;;;;;;;;;15.75;14.50;29.70;99.90;;;;;;5039570;28;8739;-66
2022/04/19 09:30:57;;;;;;;;;12.50;11.75;29.70;99.90;;;;;;5056370;28;8735;-67
2022/04/19 09:33:25;;;;;;;;;16.25;16.00;29.80;99.90;;;;;;5056216;28;8844;-66
2022/04/19 09:35:59;;;;;;;;;12.50;12.00;29.80;99.90;;;;;;5052948;28;8765;-66
2022/04/19 09:38:42;;;;;;;;;12.75;10.75;29.90;99.90;;;;;;5036156;28;8764;-66
2022/04/19 09:41:16;;;;;;;;;11.25;9.00;29.80;99.90;;;;;;5036878;28;8955;-67
2022/04/19 09:43:43;;;;;;;;;15.50;15.00;29.90;99.90;;;;;;5028713;28;8754;-66
2022/04/19 09:46:10;;;;;;;;;15.25;14.00;29.90;99.90;;;;;;5037176;28;8749;-66
2022/04/19 09:48:45;;;;;;;;;16.75;14.75;29.90;99.90;;;;;;5018368;28;8800;-66
2022/04/19 09:51:12;;;;;;;;;12.00;12.00;29.80;99.90;;;;;;5042072;28;8786;-66
2022/04/19 09:53:49;;;;;;;;;17.00;15.00;29.80;99.90;;;;;;5055699;28;8790;-66
2022/04/19 09:56:19;;;;;;;;;13.20;10.60;29.60;99.90;;;;;;5055660;28;8778;-66
2022/04/19 09:58:50;;;;;;;;;11.80;10.00;29.60;99.90;;;;;;5037912;28;8763;-66
2022/04/19 10:09:39;;;;;;;;;16.75;14.25;29.90;99.90;;;;;;5036224;28;8784;-66
2022/04/19 10:12:12;;;;;;;;;20.00;16.00;29.80;99.90;;;;;;5036204;28;8813;-66
2022/04/19 10:14:39;;;;;;;;;18.50;17.50;29.60;99.90;;;;;;5019157;28;8858;-66
2022/04/19 10:17:06;;;;;;;;;16.20;15.60;29.60;99.90;;;;;;5018633;28;8749;-66
2022/04/19 10:19:32;;;;;;;;;11.75;11.75;29.60;99.90;;;;;;5035862;28;8851;-66
2022/04/19 10:22:09;;;;;;;;;11.75;8.00;29.60;99.90;;;;;;5031592;28;8767;-66
2022/04/19 10:24:45;;;;;;;;;16.75;14.75;29.50;99.90;;;;;;5023836;28;8754;-66
2022/04/19 10:27:12;;;;;;;;;18.25;16.75;29.40;99.90;;;;;;5059578;28;8755;-66
2022/04/19 10:29:39;;;;;;;;;18.00;14.50;29.30;99.90;;;;;;5059194;28;8774;-66
2022/04/19 10:32:08;;;;;;;;;16.25;16.25;29.30;99.90;;;;;;5041698;28;8771;-66
2022/04/19 10:34:36;;;;;;;;;17.50;16.75;29.30;99.90;;;;;;5059236;28;8739;-66
2022/04/19 10:37:15;;;;;;;;;15.00;14.50;29.30;99.90;;;;;;5061845;28;8772;-66
2022/04/19 10:40:12;;;;;;;;;19.75;15.50;29.10;99.90;;;;;;5038697;28;8851;-66
2022/04/19 10:42:40;;;;;;;;;17.00;15.50;29.10;99.90;;;;;;5017637;28;8812;-66
2022/04/19 10:45:13;;;;;;;;;18.50;16.25;29.10;99.90;;;;;;5042007;28;8783;-66
2022/04/19 10:47:55;;;;;;;;;19.00;14.25;29.20;99.90;;;;;;5040515;28;8776;-66
2022/04/19 10:50:36;;;;;;;;;20.00;13.75;29.20;99.90;;;;;;5039268;28;8776;-65
2022/04/19 10:53:04;;;;;;;;;22.00;19.00;29.10;99.90;;;;;;5039080;28;8777;-66
2022/04/19 10:55:32;;;;;;;;;18.60;15.80;29.10;99.90;;;;;;5038437;28;8748;-65
2022/04/19 10:58:20;;;;;;;;;18.00;16.40;29.10;99.90;;;;;;5039467;28;8753;-66
2022/04/19 11:00:49;;;;;;;;;19.00;16.25;29.00;99.90;;;;;;5032048;28;8776;-66
2022/04/19 11:03:34;;;;;;;;;16.00;14.40;29.10;99.90;;;;;;5038773;28;8833;-66
2022/04/19 11:06:03;;;;;;;;;15.50;14.75;29.10;99.90;;;;;;5043624;28;8747;-66
2022/04/19 11:08:36;;;;;;;;;19.75;18.50;29.00;99.90;;;;;;5058241;28;8766;-66
2022/04/19 11:11:02;;;;;;;;;17.50;17.50;29.00;99.90;;;;;;5040895;28;8882;-66
2022/04/19 11:13:39;;;;;;;;;19.50;17.25;29.00;99.90;;;;;;5058015;28;8775;-66
2022/04/19 11:16:11;;;;;;;;;19.40;18.20;28.90;99.90;;;;;;5041930;28;9432;-66
2022/04/19 11:18:39;;;;;;;;;22.50;20.75;28.90;99.90;;;;;;5059252;28;8807;-66
2022/04/19 11:21:11;;;;;;;;;22.25;19.00;28.90;99.90;;;;;;5052751;28;8777;-66
2022/04/19 11:23:48;;;;;;;;;23.75;19.75;28.90;99.90;;;;;;5020571;28;8828;-66
2022/04/19 11:26:35;;;;;;;;;20.50;18.75;28.90;99.90;;;;;;5020992;28;8873;-66
2022/04/19 11:29:28;;;;;;;;;21.25;19.75;28.80;99.90;;;;;;5038671;28;8766;-66
2022/04/19 11:31:54;;;;;;;;;17.00;15.75;28.90;99.90;;;;;;5019593;28;8769;-66
2022/04/19 11:34:21;;;;;;;;;16.75;15.25;28.80;99.90;;;;;;5038747;28;8742;-66
2022/04/19 11:36:50;;;;;;;;;19.25;18.00;28.90;99.90;;;;;;5064286;28;8941;-67
2022/04/19 11:48:00;;;;;;;;;19.50;18.50;28.70;99.90;;;;;;5058608;28;8764;-66
2022/04/19 11:50:31;;;;;;;;;18.25;16.50;28.70;99.90;;;;;;5039815;28;8795;-67
2022/04/19 11:53:03;;;;;;;;;18.75;12.25;28.60;99.90;;;;;;5038152;28;8776;-66
2022/04/19 11:55:33;;;;;;;;;19.00;17.75;28.60;99.90;;;;;;5038143;28;14181;-66
2022/04/19 11:58:09;;;;;;;;;29.00;26.75;28.40;99.90;;;;;;5053756;28;9446;-66
2022/04/19 12:00:36;;;;;;;;;47.25;37.75;28.40;99.90;;;;;;5038091;28;8782;-66
2022/04/19 12:03:22;;;;;;;;;45.50;36.75;28.40;99.90;;;;;;5037908;28;8765;-66
2022/04/19 12:05:50;;;;;;;;;29.00;27.00;28.40;99.90;;;;;;5041341;28;8780;-66
2022/04/19 12:08:33;;;;;;;;;26.25;21.75;28.50;99.90;;;;;;5040572;28;9436;-64
2022/04/19 12:11:07;;;;;;;;;21.20;18.60;28.50;99.90;;;;;;5023752;28;8807;-66
2022/04/19 12:13:35;;;;;;;;;20.75;19.75;28.50;99.90;;;;;;5058073;28;8776;-66
2022/04/19 12:16:03;;;;;;;;;22.75;20.75;28.50;99.90;;;;;;5058701;28;8740;-66
2022/04/19 12:18:34;;;;;;;;;27.25;20.00;28.50;99.90;;;;;;5057836;28;8760;-66
2022/04/19 12:21:05;;;;;;;;;22.00;17.75;28.50;99.90;;;;;;5053270;28;8767;-66
2022/04/19 12:23:32;;;;;;;;;20.80;19.80;28.40;99.90;;;;;;5037404;28;8758;-66
2022/04/19 12:26:08;;;;;;;;;20.25;19.75;28.30;99.90;;;;;;5032271;28;8772;-66
2022/04/19 12:28:38;;;;;;;;;20.40;19.40;28.20;99.90;;;;;;5013497;28;8849;-66
2022/04/19 12:31:05;;;;;;;;;19.20;19.20;28.10;99.90;;;;;;5053512;28;8759;-66
2022/04/19 12:33:34;;;;;;;;;20.60;19.20;27.90;99.90;;;;;;5019495;28;8881;-65
2022/04/19 12:36:01;;;;;;;;;27.40;21.20;27.80;99.90;;;;;;5041447;28;8775;-66
2022/04/19 12:38:31;;;;;;;;;26.40;22.00;27.60;99.90;;;;;;5061064;28;8783;-67
2022/04/19 12:40:59;;;;;;;;;24.50;22.25;27.40;99.90;;;;;;5038741;28;8822;-66
2022/04/19 12:43:46;;;;;;;;;28.25;23.50;27.30;99.90;;;;;;5038931;28;9606;-66
2022/04/19 12:46:16;;;;;;;;;23.00;16.75;27.30;99.90;;;;;;5023499;28;8890;-66
2022/04/19 12:48:56;;;;;;;;;23.00;18.00;27.10;99.90;;;;;;5072098;28;8764;-66
2022/04/19 12:51:26;;;;;;;;;20.50;15.50;27.00;99.90;;;;;;5048942;28;9433;-65
2022/04/19 12:54:07;;;;;;;;;16.25;14.25;26.90;99.90;;;;;;5019232;28;8743;-67
2022/04/19 12:59:19;;;;;;;;;17.25;14.50;26.90;99.90;;;;;;5036834;28;8781;-66
2022/04/19 13:01:46;;;;;;;;;13.50;12.75;26.80;99.90;;;;;;5036811;28;8891;-66
2022/04/19 13:04:12;;;;;;;;;15.25;14.75;26.80;99.90;;;;;;5052784;28;8735;-66
2022/04/19 13:12:19;;;;;;;;;19.75;17.00;26.80;99.90;;;;;;5036911;28;8810;-66
2022/04/19 13:14:50;;;;;;;;;26.40;23.60;26.80;99.90;;;;;;5051170;28;8742;-66
2022/04/19 13:17:17;;;;;;;;;22.25;21.50;26.70;99.90;;;;;;5018879;28;8770;-65
2022/04/19 13:19:45;;;;;;;;;24.50;21.00;26.60;99.90;;;;;;5019129;28;8835;-66
2022/04/19 13:22:12;;;;;;;;;17.50;17.50;26.50;99.90;;;;;;5022897;28;8753;-66
2022/04/19 13:24:39;;;;;;;;;18.25;17.00;26.40;99.90;;;;;;4999235;28;9457;-66
2022/04/19 13:27:07;;;;;;;;;19.25;17.00;26.40;99.90;;;;;;4998978;28;8749;-66
2022/04/19 13:29:38;;;;;;;;;21.00;20.50;26.40;99.90;;;;;;4999238;28;9043;-65
2022/04/19 13:32:06;;;;;;;;;21.25;19.75;26.30;99.90;;;;;;4999261;28;8800;-66
2022/04/19 13:34:33;;;;;;;;;19.00;18.25;26.30;99.90;;;;;;5016454;28;8741;-65